Time;durP1;ratioP1;P1;durP2;ratioP2;P2;SDS_P1;SDS_P2;PMS_P1;PMS_P2;Temp;Humidity;BMP_temperature;BMP_pressure;BME280_temperature;BME280_humidity;BME280_pressure;Samples;Min_cycle;Max_cycle;Signal;HPM_P1;HPM_P2
2021/10/21 00:01:39;;;;;;;4.35;2.70;;;;;;;;;;4941091;28;20058;-65
2021/10/21 00:04:05;;;;;;;7.28;3.22;;;;;;;;;;4942243;29;20031;-65
2021/10/21 00:06:30;;;;;;;6.28;2.97;;;;;;;;;;4941882;28;20127;-66
2021/10/21 00:08:55;;;;;;;7.50;2.88;;;;;;;;;;4942746;28;20366;-65
2021/10/21 00:11:20;;;;;;;4.55;2.75;;;;;;;;;;4947899;28;20397;-65
2021/10/21 00:13:45;;;;;;;6.28;2.83;;;;;;;;;;4940803;29;20054;-65
2021/10/21 00:16:11;;;;;;;5.20;3.03;;;;;;;;;;4943377;28;20218;-66
2021/10/21 00:18:36;;;;;;;5.40;2.67;;;;;;;;;;4943932;28;20359;-65
2021/10/21 00:21:01;;;;;;;6.03;2.85;;;;;;;;;;4943974;28;20157;-66
2021/10/21 00:23:26;;;;;;;7.15;3.00;;;;;;;;;;4945497;28;20034;-66
2021/10/21 00:25:52;;;;;;;4.35;2.90;;;;;;;;;;4946112;28;20541;-65
2021/10/21 00:28:17;;;;;;;5.00;2.70;;;;;;;;;;4930974;29;20386;-66
2021/10/21 00:30:42;;;;;;;3.60;2.42;;;;;;;;;;4944126;28;20047;-65
2021/10/21 00:33:07;;;;;;;6.80;3.08;;;;;;;;;;4947813;28;20382;-66
2021/10/21 00:35:33;;;;;;;6.25;2.97;;;;;;;;;;4948003;28;20031;-66
2021/10/21 00:37:58;;;;;;;8.43;3.00;;;;;;;;;;4961067;28;20031;-68
2021/10/21 00:40:23;;;;;;;6.47;3.10;;;;;;;;;;4957582;28;20442;-68
2021/10/21 00:42:49;;;;;;;8.45;3.15;;;;;;;;;;4937021;29;20031;-69
2021/10/21 00:45:14;;;;;;;8.13;3.60;;;;;;;;;;4937885;28;20095;-69
2021/10/21 00:47:39;;;;;;;5.90;3.20;;;;;;;;;;4947096;28;20027;-69
2021/10/21 00:50:05;;;;;;;6.82;2.90;;;;;;;;;;4943587;28;20146;-68
2021/10/21 00:52:30;;;;;;;4.65;2.90;;;;;;;;;;4945959;28;20042;-69
2021/10/21 00:54:56;;;;;;;5.60;3.05;;;;;;;;;;4942199;28;20537;-69
2021/10/21 00:57:21;;;;;;;7.80;2.92;;;;;;;;;;4942697;28;20043;-69
2021/10/21 00:59:46;;;;;;;14.02;3.22;;;;;;;;;;4946611;28;20082;-69
2021/10/21 01:02:12;;;;;;;8.50;2.70;;;;;;;;;;4943851;28;20487;-69
2021/10/21 01:04:37;;;;;;;7.45;2.83;;;;;;;;;;4944040;29;20411;-69
2021/10/21 01:07:03;;;;;;;9.15;2.72;;;;;;;;;;4938826;28;20501;-71
2021/10/21 01:09:28;;;;;;;5.10;2.33;;;;;;;;;;4947676;28;20382;-68
2021/10/21 01:11:53;;;;;;;4.40;2.00;;;;;;;;;;4941291;28;20859;-68
2021/10/21 01:14:18;;;;;;;3.63;1.98;;;;;;;;;;4943354;28;20071;-68
2021/10/21 01:16:44;;;;;;;6.65;1.88;;;;;;;;;;4944445;28;20858;-68
2021/10/21 01:19:19;;;;;;;3.65;1.60;;;;;;;;;;4947037;28;20050;-68
2021/10/21 01:21:44;;;;;;;3.33;1.70;;;;;;;;;;4945721;28;20043;-68
2021/10/21 01:24:10;;;;;;;4.68;1.85;;;;;;;;;;4946099;28;20026;-68
2021/10/21 01:26:35;;;;;;;6.82;1.70;;;;;;;;;;4947146;28;20039;-68
2021/10/21 01:29:00;;;;;;;4.30;1.88;;;;;;;;;;4939453;29;20027;-68
2021/10/21 01:31:26;;;;;;;5.90;1.90;;;;;;;;;;4935995;28;20043;-67
2021/10/21 01:33:51;;;;;;;3.58;1.60;;;;;;;;;;4938376;29;20702;-67
2021/10/21 01:36:16;;;;;;;4.85;1.73;;;;;;;;;;4943397;28;20074;-67
2021/10/21 01:38:41;;;;;;;3.78;1.80;;;;;;;;;;4948105;28;20167;-67
2021/10/21 01:41:06;;;;;;;3.53;1.63;;;;;;;;;;4946598;28;20107;-67
2021/10/21 01:43:32;;;;;;;3.78;1.50;;;;;;;;;;4936246;29;20106;-67
2021/10/21 01:45:57;;;;;;;2.95;1.48;;;;;;;;;;4940912;28;20039;-67
2021/10/21 01:48:22;;;;;;;2.38;1.48;;;;;;;;;;4947088;28;20027;-66
2021/10/21 01:50:47;;;;;;;7.85;1.60;;;;;;;;;;4947057;28;20038;-66
2021/10/21 01:53:12;;;;;;;4.05;1.23;;;;;;;;;;4947559;28;20027;-66
2021/10/21 01:55:38;;;;;;;1.75;1.25;;;;;;;;;;4941110;28;20042;-66
2021/10/21 01:58:03;;;;;;;9.85;1.48;;;;;;;;;;4943495;28;20126;-66
2021/10/21 02:00:29;;;;;;;7.88;1.90;;;;;;;;;;4931677;29;20063;-66
2021/10/21 02:02:54;;;;;;;2.55;1.38;;;;;;;;;;4946917;28;20115;-66
2021/10/21 02:05:19;;;;;;;7.47;1.40;;;;;;;;;;4946741;28;20315;-66
2021/10/21 02:07:44;;;;;;;3.83;0.95;;;;;;;;;;4941092;28;20023;-66
2021/10/21 02:10:14;;;;;;;5.40;1.60;;;;;;;;;;4947079;28;20132;-66
2021/10/21 02:12:39;;;;;;;5.07;1.40;;;;;;;;;;4955479;28;20027;-66
2021/10/21 02:15:05;;;;;;;10.35;1.65;;;;;;;;;;4937500;28;20039;-66
2021/10/21 02:17:30;;;;;;;3.92;1.42;;;;;;;;;;4946589;28;20031;-66
2021/10/21 02:19:55;;;;;;;8.40;1.38;;;;;;;;;;4940517;28;20038;-66
2021/10/21 02:22:20;;;;;;;12.35;1.75;;;;;;;;;;4939218;28;20573;-66
2021/10/21 02:24:46;;;;;;;9.70;1.60;;;;;;;;;;4958756;28;20114;-66
2021/10/21 02:27:11;;;;;;;4.40;1.45;;;;;;;;;;4935646;28;20043;-66
2021/10/21 02:29:36;;;;;;;5.45;1.50;;;;;;;;;;4935119;28;20367;-66
2021/10/21 02:32:01;;;;;;;5.72;1.70;;;;;;;;;;4942710;28;20040;-66
2021/10/21 02:34:27;;;;;;;4.63;1.42;;;;;;;;;;4946711;28;20179;-66
2021/10/21 02:36:53;;;;;;;6.05;1.50;;;;;;;;;;4940383;28;20087;-66
2021/10/21 02:39:18;;;;;;;7.85;1.40;;;;;;;;;;4942802;28;20031;-66
2021/10/21 02:41:43;;;;;;;5.18;1.90;;;;;;;;;;4958468;28;20351;-66
2021/10/21 02:44:08;;;;;;;7.88;1.80;;;;;;;;;;4942766;28;20394;-66
2021/10/21 02:46:34;;;;;;;11.27;2.13;;;;;;;;;;4946662;28;20027;-66
2021/10/21 02:48:59;;;;;;;10.57;1.90;;;;;;;;;;4948769;28;20090;-66
2021/10/21 02:51:24;;;;;;;9.48;1.90;;;;;;;;;;4950536;28;20035;-66
2021/10/21 02:53:49;;;;;;;8.95;1.60;;;;;;;;;;4950300;28;20031;-66
2021/10/21 02:56:15;;;;;;;8.13;2.10;;;;;;;;;;4949485;28;20035;-66
2021/10/21 02:58:40;;;;;;;6.55;1.50;;;;;;;;;;4942302;28;20035;-66
2021/10/21 03:01:05;;;;;;;7.70;1.90;;;;;;;;;;4947270;28;20568;-66
2021/10/21 03:03:30;;;;;;;8.57;1.88;;;;;;;;;;4950132;28;20019;-66
2021/10/21 03:05:55;;;;;;;8.93;1.85;;;;;;;;;;4947566;28;20042;-66
2021/10/21 03:08:21;;;;;;;7.20;1.60;;;;;;;;;;4942759;28;20020;-65
2021/10/21 03:10:46;;;;;;;10.80;1.42;;;;;;;;;;4945641;28;20031;-65
2021/10/21 03:13:11;;;;;;;10.05;1.45;;;;;;;;;;4942988;28;20070;-66
2021/10/21 03:15:36;;;;;;;6.93;1.58;;;;;;;;;;4942794;28;20066;-66
2021/10/21 03:18:02;;;;;;;7.97;1.75;;;;;;;;;;4949485;28;20327;-66
2021/10/21 03:20:27;;;;;;;8.32;1.77;;;;;;;;;;4942376;29;20063;-66
2021/10/21 03:22:52;;;;;;;11.90;2.28;;;;;;;;;;4950676;29;20035;-66
2021/10/21 03:25:17;;;;;;;10.32;2.28;;;;;;;;;;4945777;28;20046;-66
2021/10/21 03:27:42;;;;;;;5.70;1.65;;;;;;;;;;4949280;29;20011;-66
2021/10/21 03:30:08;;;;;;;7.78;1.98;;;;;;;;;;4948977;28;20031;-65
2021/10/21 03:32:33;;;;;;;6.63;1.60;;;;;;;;;;4946947;28;20039;-65
2021/10/21 03:34:59;;;;;;;12.55;1.98;;;;;;;;;;4949496;28;20027;-65
2021/10/21 03:37:24;;;;;;;9.30;1.88;;;;;;;;;;4951458;28;20402;-65
2021/10/21 03:39:50;;;;;;;9.65;1.80;;;;;;;;;;4946595;28;20023;-66
2021/10/21 03:42:18;;;;;;;5.45;1.30;;;;;;;;;;4949014;28;20063;-65
2021/10/21 03:44:44;;;;;;;13.07;1.90;;;;;;;;;;4941354;28;20024;-65
2021/10/21 03:47:09;;;;;;;9.02;1.38;;;;;;;;;;4947440;28;20406;-65
2021/10/21 03:49:35;;;;;;;7.95;1.35;;;;;;;;;;4939139;29;20038;-65
2021/10/21 03:52:00;;;;;;;12.63;1.77;;;;;;;;;;4939050;28;20171;-65
2021/10/21 03:54:25;;;;;;;8.90;1.50;;;;;;;;;;4940214;28;20437;-65
2021/10/21 03:56:51;;;;;;;9.15;1.95;;;;;;;;;;4948713;28;20390;-65
2021/10/21 03:59:16;;;;;;;8.75;1.75;;;;;;;;;;4945295;28;20125;-65
2021/10/21 04:01:41;;;;;;;7.32;1.38;;;;;;;;;;4946144;28;20059;-65
2021/10/21 04:04:06;;;;;;;5.00;1.55;;;;;;;;;;4946839;28;20023;-65
2021/10/21 04:06:32;;;;;;;5.18;1.40;;;;;;;;;;4946093;28;20040;-65
2021/10/21 04:08:57;;;;;;;11.88;1.50;;;;;;;;;;4945987;28;20058;-65
2021/10/21 04:11:22;;;;;;;4.38;1.30;;;;;;;;;;4944842;28;20122;-65
2021/10/21 04:13:47;;;;;;;5.43;1.40;;;;;;;;;;4948892;28;20051;-65
2021/10/21 04:16:13;;;;;;;8.38;2.00;;;;;;;;;;4947493;28;20082;-65
2021/10/21 04:18:38;;;;;;;7.25;1.50;;;;;;;;;;4948467;28;20031;-65
2021/10/21 04:21:03;;;;;;;6.70;1.42;;;;;;;;;;4948669;28;20174;-65
2021/10/21 04:23:28;;;;;;;10.98;1.90;;;;;;;;;;4948664;28;20089;-65
2021/10/21 04:25:54;;;;;;;8.25;1.70;;;;;;;;;;4939444;28;20044;-65
2021/10/21 04:28:19;;;;;;;15.00;2.05;;;;;;;;;;4947748;28;20040;-65
2021/10/21 04:30:46;;;;;;;12.02;1.60;;;;;;;;;;4938187;28;20102;-65
2021/10/21 04:33:11;;;;;;;6.50;1.48;;;;;;;;;;4940094;28;20035;-65
2021/10/21 04:35:36;;;;;;;8.07;1.50;;;;;;;;;;4947813;28;20039;-65
2021/10/21 04:38:02;;;;;;;5.68;1.40;;;;;;;;;;4940352;28;20040;-65
2021/10/21 04:40:27;;;;;;;8.20;1.27;;;;;;;;;;4942549;28;20070;-65
2021/10/21 04:42:53;;;;;;;8.65;1.70;;;;;;;;;;4943721;28;20439;-65
2021/10/21 04:45:18;;;;;;;9.88;1.50;;;;;;;;;;4945752;28;20118;-65
2021/10/21 04:47:43;;;;;;;9.68;1.95;;;;;;;;;;4948526;28;20027;-65
2021/10/21 04:50:08;;;;;;;8.68;1.80;;;;;;;;;;4948090;28;20023;-64
2021/10/21 04:52:35;;;;;;;9.95;1.88;;;;;;;;;;4934311;28;20062;-65
2021/10/21 04:55:00;;;;;;;5.57;1.40;;;;;;;;;;4938941;28;20626;-65
2021/10/21 04:57:25;;;;;;;5.10;1.60;;;;;;;;;;4960115;28;20039;-65
2021/10/21 04:59:51;;;;;;;9.73;1.90;;;;;;;;;;4948466;28;20034;-65
2021/10/21 05:02:16;;;;;;;6.80;1.27;;;;;;;;;;4947949;28;20051;-65
2021/10/21 05:04:41;;;;;;;6.15;1.20;;;;;;;;;;4936579;28;20027;-65
2021/10/21 05:07:06;;;;;;;6.68;1.52;;;;;;;;;;4940997;28;20070;-66
2021/10/21 05:09:31;;;;;;;2.13;1.00;;;;;;;;;;4948432;28;20090;-67
2021/10/21 05:11:57;;;;;;;11.05;1.85;;;;;;;;;;4947822;28;20044;-66
2021/10/21 05:14:23;;;;;;;6.28;1.73;;;;;;;;;;4942123;28;20054;-66
2021/10/21 05:16:48;;;;;;;8.82;1.77;;;;;;;;;;4937973;28;20514;-66
2021/10/21 05:19:14;;;;;;;6.68;1.40;;;;;;;;;;4942992;28;20115;-67
2021/10/21 05:21:39;;;;;;;4.85;2.70;;;;;;;;;;4943412;28;20043;-66
2021/10/21 05:24:04;;;;;;;7.38;1.40;;;;;;;;;;4948029;28;20540;-66
2021/10/21 05:26:29;;;;;;;16.67;1.67;;;;;;;;;;4940384;28;20039;-68
2021/10/21 05:28:55;;;;;;;3.70;1.05;;;;;;;;;;4947593;28;20031;-68
2021/10/21 05:31:20;;;;;;;3.05;1.05;;;;;;;;;;4947379;28;20035;-67
2021/10/21 05:33:46;;;;;;;15.80;1.60;;;;;;;;;;4941098;28;20035;-66
2021/10/21 05:36:11;;;;;;;6.88;1.20;;;;;;;;;;4945524;28;20092;-68
2021/10/21 05:38:36;;;;;;;5.93;1.27;;;;;;;;;;4947849;28;20502;-68
2021/10/21 05:41:01;;;;;;;3.58;1.10;;;;;;;;;;4947747;28;20174;-67
2021/10/21 05:43:27;;;;;;;6.65;1.10;;;;;;;;;;4940790;29;20034;-66
2021/10/21 05:45:52;;;;;;;3.55;0.98;;;;;;;;;;4953936;28;20140;-66
2021/10/21 05:48:17;;;;;;;2.25;0.90;;;;;;;;;;4940768;28;20118;-66
2021/10/21 05:50:43;;;;;;;4.18;1.23;;;;;;;;;;4950528;28;20035;-67
2021/10/21 05:53:08;;;;;;;2.08;1.25;;;;;;;;;;4938659;28;20027;-66
2021/10/21 05:55:33;;;;;;;4.15;0.85;;;;;;;;;;4943036;28;20478;-66
2021/10/21 05:57:59;;;;;;;5.43;1.60;;;;;;;;;;4946681;28;20034;-66
2021/10/21 06:00:24;;;;;;;1.77;1.02;;;;;;;;;;4934993;28;20039;-67
2021/10/21 06:02:49;;;;;;;9.45;0.98;;;;;;;;;;4937958;28;20040;-67
2021/10/21 06:05:14;;;;;;;1.70;0.98;;;;;;;;;;4937881;28;20056;-66
2021/10/21 06:07:39;;;;;;;6.28;1.38;;;;;;;;;;4934388;29;20039;-66
2021/10/21 06:10:05;;;;;;;3.22;1.15;;;;;;;;;;4936681;28;20138;-67
2021/10/21 06:12:30;;;;;;;6.80;1.17;;;;;;;;;;4944122;28;20425;-67
2021/10/21 06:14:55;;;;;;;0.93;0.60;;;;;;;;;;4943400;28;20139;-67
2021/10/21 06:17:23;;;;;;;1.27;0.80;;;;;;;;;;4941177;28;20093;-66
2021/10/21 06:19:48;;;;;;;3.83;1.13;;;;;;;;;;4945953;28;20050;-66
2021/10/21 06:22:18;;;;;;;1.80;0.95;;;;;;;;;;4943992;28;20509;-66
2021/10/21 06:24:43;;;;;;;1.85;0.63;;;;;;;;;;4951042;28;20458;-66
2021/10/21 06:27:08;;;;;;;1.80;0.70;;;;;;;;;;4951098;28;20043;-66
2021/10/21 06:29:33;;;;;;;4.47;0.80;;;;;;;;;;4951222;28;20024;-67
2021/10/21 06:32:00;;;;;;;1.70;0.82;;;;;;;;;;4951715;28;20038;-66
2021/10/21 06:34:25;;;;;;;1.73;0.63;;;;;;;;;;4930273;29;20020;-66
2021/10/21 06:36:51;;;;;;;1.52;0.70;;;;;;;;;;4949431;28;20043;-66
2021/10/21 06:39:17;;;;;;;1.38;0.70;;;;;;;;;;4950852;28;20486;-66
2021/10/21 06:41:42;;;;;;;1.67;0.73;;;;;;;;;;4947641;28;20078;-66
2021/10/21 06:44:07;;;;;;;1.23;0.82;;;;;;;;;;4948625;28;20055;-66
2021/10/21 06:46:33;;;;;;;1.17;0.70;;;;;;;;;;4940784;28;20113;-66
2021/10/21 06:49:01;;;;;;;0.85;0.70;;;;;;;;;;4937694;29;20106;-66
2021/10/21 06:51:26;;;;;;;2.85;0.90;;;;;;;;;;4945531;28;20031;-66
2021/10/21 06:53:51;;;;;;;0.60;0.60;;;;;;;;;;4950567;28;20382;-66
2021/10/21 06:56:17;;;;;;;0.30;0.30;;;;;;;;;;4945223;28;20048;-66
2021/10/21 06:58:42;;;;;;;0.90;0.77;;;;;;;;;;4950850;28;20470;-66
2021/10/21 07:01:07;;;;;;;0.38;0.30;;;;;;;;;;4948579;28;20146;-66
2021/10/21 07:03:32;;;;;;;1.77;0.70;;;;;;;;;;4942781;28;20126;-66
2021/10/21 07:05:57;;;;;;;1.00;0.40;;;;;;;;;;4947945;28;20572;-65
2021/10/21 07:08:25;;;;;;;0.95;0.60;;;;;;;;;;4946053;28;20038;-67
2021/10/21 07:10:50;;;;;;;0.80;0.45;;;;;;;;;;4950650;28;20054;-65
2021/10/21 07:13:15;;;;;;;2.47;0.88;;;;;;;;;;4949938;28;20483;-66
2021/10/21 07:15:40;;;;;;;3.33;0.57;;;;;;;;;;4949993;28;20043;-66
2021/10/21 07:18:06;;;;;;;0.40;0.40;;;;;;;;;;4943357;28;20102;-65
2021/10/21 07:20:31;;;;;;;0.98;0.77;;;;;;;;;;4939327;28;20040;-66
2021/10/21 07:22:57;;;;;;;0.52;0.43;;;;;;;;;;4946348;28;20041;-66
2021/10/21 07:25:23;;;;;;;1.95;0.70;;;;;;;;;;4946520;28;20043;-65
2021/10/21 07:27:49;;;;;;;3.13;0.80;;;;;;;;;;4945008;28;20031;-65
2021/10/21 07:30:14;;;;;;;3.63;0.90;;;;;;;;;;4941627;28;20427;-64
2021/10/21 07:32:40;;;;;;;2.10;0.82;;;;;;;;;;4940291;28;20019;-65
2021/10/21 07:35:05;;;;;;;1.42;0.85;;;;;;;;;;4949653;28;20031;-65
2021/10/21 07:37:30;;;;;;;2.92;0.80;;;;;;;;;;4950305;28;20102;-65
2021/10/21 07:39:56;;;;;;;3.65;0.88;;;;;;;;;;4957788;28;20034;-65
2021/10/21 07:42:21;;;;;;;4.85;1.20;;;;;;;;;;4944700;28;20059;-64
2021/10/21 07:44:49;;;;;;;3.80;1.23;;;;;;;;;;4949671;28;20031;-65
2021/10/21 07:47:14;;;;;;;5.07;1.70;;;;;;;;;;4943671;28;20042;-66
2021/10/21 07:49:40;;;;;;;2.08;1.27;;;;;;;;;;4941538;29;20023;-65
2021/10/21 07:52:05;;;;;;;3.72;1.60;;;;;;;;;;4949697;28;20598;-64
2021/10/21 07:54:31;;;;;;;9.80;2.40;;;;;;;;;;4952754;28;20506;-66
2021/10/21 07:56:56;;;;;;;4.03;1.42;;;;;;;;;;4943253;29;20049;-65
2021/10/21 07:59:22;;;;;;;1.98;1.17;;;;;;;;;;4954315;28;20318;-65
2021/10/21 08:01:47;;;;;;;6.07;1.80;;;;;;;;;;4943725;28;20082;-65
2021/10/21 08:04:14;;;;;;;5.55;1.20;;;;;;;;;;4942516;28;20019;-65
2021/10/21 08:06:43;;;;;;;3.53;1.40;;;;;;;;;;4947415;28;20043;-65
2021/10/21 08:09:08;;;;;;;5.72;1.50;;;;;;;;;;4942760;28;20024;-65
2021/10/21 08:11:34;;;;;;;4.40;1.73;;;;;;;;;;4949202;28;20047;-65
2021/10/21 08:13:59;;;;;;;4.72;1.75;;;;;;;;;;4945134;28;20137;-65
2021/10/21 08:16:24;;;;;;;5.88;1.50;;;;;;;;;;4942497;28;20497;-66
2021/10/21 08:18:49;;;;;;;8.93;1.90;;;;;;;;;;4948638;28;20026;-66
2021/10/21 08:21:14;;;;;;;4.68;2.00;;;;;;;;;;4945412;28;20445;-66
2021/10/21 08:23:40;;;;;;;3.42;1.75;;;;;;;;;;4949218;28;20555;-66
2021/10/21 08:26:06;;;;;;;7.40;1.70;;;;;;;;;;4948265;28;20039;-66
2021/10/21 08:28:31;;;;;;;6.20;1.90;;;;;;;;;;4949042;28;20102;-64
2021/10/21 08:30:57;;;;;;;6.07;1.50;;;;;;;;;;4959382;28;20158;-67
2021/10/21 08:33:22;;;;;;;3.63;1.60;;;;;;;;;;4960443;28;20019;-67
2021/10/21 08:35:47;;;;;;;4.63;1.48;;;;;;;;;;4942725;28;20622;-65
2021/10/21 08:38:12;;;;;;;4.78;1.90;;;;;;;;;;4938888;29;20024;-66
2021/10/21 08:40:38;;;;;;;7.72;1.88;;;;;;;;;;4941437;28;20466;-65
2021/10/21 08:43:04;;;;;;;7.43;1.90;;;;;;;;;;4936432;28;20694;-65
2021/10/21 08:45:29;;;;;;;8.18;1.98;;;;;;;;;;4944067;28;20047;-65
2021/10/21 08:48:01;;;;;;;6.85;2.25;;;;;;;;;;4943191;28;20027;-65
2021/10/21 08:50:26;;;;;;;5.30;2.33;;;;;;;;;;4943717;28;20046;-65
2021/10/21 08:52:52;;;;;;;11.88;2.40;;;;;;;;;;4948561;28;20031;-65
2021/10/21 08:55:17;;;;;;;5.05;1.95;;;;;;;;;;4946923;28;20030;-65
2021/10/21 08:57:43;;;;;;;3.33;1.67;;;;;;;;;;4941954;28;20030;-65
2021/10/21 09:00:08;;;;;;;6.72;1.85;;;;;;;;;;4936908;28;20039;-65
2021/10/21 09:03:03;;;;;;;8.68;2.17;;;;;;;;;;4940216;28;20035;-65
2021/10/21 09:05:32;;;;;;;8.50;1.90;;;;;;;;;;4946244;28;20027;-65
2021/10/21 09:08:04;;;;;;;8.77;2.00;;;;;;;;;;4948492;28;20114;-65
2021/10/21 09:10:30;;;;;;;6.90;1.98;;;;;;;;;;4941399;28;20031;-65
2021/10/21 09:12:56;;;;;;;5.18;1.60;;;;;;;;;;4943429;28;20031;-65
2021/10/21 09:15:23;;;;;;;4.18;1.48;;;;;;;;;;4940922;28;20065;-65
2021/10/21 09:17:48;;;;;;;7.15;1.90;;;;;;;;;;4946745;28;20019;-65
2021/10/21 09:20:20;;;;;;;8.65;2.10;;;;;;;;;;4954951;28;20024;-65
2021/10/21 09:22:52;;;;;;;4.60;1.67;;;;;;;;;;4940850;28;20078;-65
2021/10/21 09:25:20;;;;;;;6.50;2.03;;;;;;;;;;4947710;28;20086;-66
2021/10/21 09:27:45;;;;;;;5.88;1.80;;;;;;;;;;4936656;28;20373;-65
2021/10/21 09:30:11;;;;;;;8.30;2.08;;;;;;;;;;4941374;28;20094;-65
2021/10/21 09:32:36;;;;;;;6.13;2.22;;;;;;;;;;4941437;28;20027;-65
2021/10/21 09:35:05;;;;;;;6.45;1.85;;;;;;;;;;4946929;28;20030;-65
2021/10/21 09:37:31;;;;;;;10.25;2.42;;;;;;;;;;4947402;28;20489;-64
2021/10/21 09:40:00;;;;;;;7.47;1.85;;;;;;;;;;4942073;29;20042;-64
2021/10/21 09:42:26;;;;;;;10.38;2.30;;;;;;;;;;4955162;28;20035;-64
2021/10/21 09:45:00;;;;;;;7.28;2.00;;;;;;;;;;4943507;28;20037;-65
2021/10/21 09:47:25;;;;;;;6.50;1.83;;;;;;;;;;4945223;28;20097;-64
2021/10/21 09:49:54;;;;;;;6.90;1.80;;;;;;;;;;4945408;29;20592;-64
2021/10/21 09:52:20;;;;;;;7.45;2.05;;;;;;;;;;4947122;28;20035;-64
2021/10/21 09:54:46;;;;;;;6.15;1.98;;;;;;;;;;4948306;28;20138;-64
2021/10/21 09:57:13;;;;;;;6.05;1.80;;;;;;;;;;4942420;28;20376;-64
2021/10/21 09:59:39;;;;;;;8.55;2.35;;;;;;;;;;4940509;28;20023;-64
2021/10/21 10:02:05;;;;;;;8.52;2.50;;;;;;;;;;4936208;28;20572;-64
2021/10/21 10:04:30;;;;;;;8.98;2.20;;;;;;;;;;4940863;28;20023;-64
2021/10/21 10:06:58;;;;;;;6.40;1.88;;;;;;;;;;4942581;28;20098;-64
2021/10/21 10:09:26;;;;;;;8.55;2.00;;;;;;;;;;4960189;28;20030;-64
2021/10/21 10:11:51;;;;;;;8.18;2.47;;;;;;;;;;4935349;28;20047;-64
2021/10/21 10:14:16;;;;;;;6.72;1.55;;;;;;;;;;4941296;29;20060;-64
2021/10/21 10:16:43;;;;;;;7.97;2.10;;;;;;;;;;4940301;28;20032;-64
2021/10/21 10:19:08;;;;;;;7.78;1.77;;;;;;;;;;4941155;28;20071;-64
2021/10/21 10:21:35;;;;;;;7.05;1.90;;;;;;;;;;4942093;28;20082;-64
2021/10/21 10:24:02;;;;;;;8.10;1.52;;;;;;;;;;4942811;29;20035;-65
2021/10/21 10:26:46;;;;;;;8.45;2.22;;;;;;;;;;4945823;28;20042;-64
2021/10/21 10:29:18;;;;;;;9.10;1.90;;;;;;;;;;4936111;29;20027;-64
2021/10/21 10:31:44;;;;;;;10.25;2.00;;;;;;;;;;4930475;29;20123;-64
2021/10/21 10:34:29;;;;;;;7.90;1.90;;;;;;;;;;4943856;28;20023;-66
2021/10/21 10:36:54;;;;;;;6.72;1.92;;;;;;;;;;4958900;28;20133;-64
2021/10/21 10:39:38;;;;;;;9.98;2.35;;;;;;;;;;4944939;28;20602;-65
2021/10/21 10:42:04;;;;;;;8.65;2.00;;;;;;;;;;4941504;28;20047;-64
2021/10/21 10:44:35;;;;;;;5.78;1.98;;;;;;;;;;4952701;28;20024;-64
2021/10/21 10:47:00;;;;;;;9.82;2.38;;;;;;;;;;4954240;28;20054;-64
2021/10/21 10:49:40;;;;;;;13.55;2.80;;;;;;;;;;4946603;28;20027;-64
2021/10/21 10:52:06;;;;;;;;;;;;;;;;;;4956408;28;20560;-64
2021/10/21 10:54:43;;;;;;;7.45;1.63;;;;;;;;;;4946586;28;20005;-64
2021/10/21 10:57:12;;;;;;;11.23;2.08;;;;;;;;;;4943560;28;20052;-64
2021/10/21 10:59:38;;;;;;;7.50;2.27;;;;;;;;;;4942892;28;20062;-64
2021/10/21 11:02:22;;;;;;;10.30;1.88;;;;;;;;;;4946961;28;20082;-64
2021/10/21 11:04:57;;;;;;;7.97;1.80;;;;;;;;;;4946755;28;20486;-64
2021/10/21 11:07:22;;;;;;;10.68;1.92;;;;;;;;;;4936145;28;20039;-65
2021/10/21 11:09:48;;;;;;;9.00;2.15;;;;;;;;;;4948338;28;20461;-66
2021/10/21 11:12:23;;;;;;;11.55;2.05;;;;;;;;;;4946199;28;20099;-65
2021/10/21 11:14:54;;;;;;;12.23;2.17;;;;;;;;;;4949407;28;20525;-65
2021/10/21 11:17:49;;;;;;;6.50;2.05;;;;;;;;;;4949962;28;20445;-64
2021/10/21 11:20:26;;;;;;;14.32;2.20;;;;;;;;;;4948501;28;20034;-65
2021/10/21 11:22:52;;;;;;;5.13;1.65;;;;;;;;;;4945601;29;20110;-65
2021/10/21 11:25:17;;;;;;;11.27;2.90;;;;;;;;;;4938625;28;20287;-64
2021/10/21 11:27:43;;;;;;;8.90;2.10;;;;;;;;;;4943138;29;20020;-64
2021/10/21 11:30:16;;;;;;;7.68;2.00;;;;;;;;;;4940816;28;20099;-64
2021/10/21 11:32:41;;;;;;;11.45;2.03;;;;;;;;;;4941684;29;20102;-64
2021/10/21 11:35:07;;;;;;;9.13;2.05;;;;;;;;;;4947384;28;20114;-64
2021/10/21 11:37:33;;;;;;;7.70;1.77;;;;;;;;;;4947475;28;20034;-64
2021/10/21 11:39:58;;;;;;;8.48;2.05;;;;;;;;;;4953660;28;21066;-64
2021/10/21 11:42:24;;;;;;;11.90;2.10;;;;;;;;;;4944533;28;20043;-64
2021/10/21 11:44:49;;;;;;;9.38;2.65;;;;;;;;;;4946532;29;20027;-65
2021/10/21 11:47:14;;;;;;;7.55;1.92;;;;;;;;;;4942802;28;20035;-63
2021/10/21 11:49:39;;;;;;;13.13;2.78;;;;;;;;;;4944852;29;20023;-63
2021/10/21 11:52:05;;;;;;;9.85;2.33;;;;;;;;;;4944948;28;20039;-65
2021/10/21 11:54:30;;;;;;;7.68;2.05;;;;;;;;;;4947561;29;20023;-65
2021/10/21 11:56:56;;;;;;;8.27;2.05;;;;;;;;;;4945800;28;20036;-65
2021/10/21 11:59:33;;;;;;;6.63;1.98;;;;;;;;;;4949428;28;20556;-65
2021/10/21 12:02:14;;;;;;;13.57;2.38;;;;;;;;;;4944667;28;20047;-66
2021/10/21 12:04:43;;;;;;;9.85;2.40;;;;;;;;;;4947004;29;20101;-66
2021/10/21 12:07:08;;;;;;;11.38;2.60;;;;;;;;;;4942766;28;20035;-66
2021/10/21 12:09:34;;;;;;;9.20;2.38;;;;;;;;;;4947891;28;20816;-66
2021/10/21 12:12:02;;;;;;;11.25;2.78;;;;;;;;;;4942288;28;20710;-65
2021/10/21 12:14:28;;;;;;;9.90;2.38;;;;;;;;;;4941883;28;20059;-65
2021/10/21 12:16:53;;;;;;;14.38;2.13;;;;;;;;;;4939144;28;20050;-64
2021/10/21 12:19:19;;;;;;;10.48;2.30;;;;;;;;;;4945352;29;20072;-65
2021/10/21 12:21:44;;;;;;;8.15;2.10;;;;;;;;;;4943474;28;20143;-65
2021/10/21 12:24:17;;;;;;;9.00;2.20;;;;;;;;;;4945279;28;20033;-65
2021/10/21 12:26:42;;;;;;;14.93;2.30;;;;;;;;;;4948471;28;20074;-65
2021/10/21 12:29:11;;;;;;;11.98;2.35;;;;;;;;;;4948123;28;20047;-65
2021/10/21 12:31:36;;;;;;;14.45;2.03;;;;;;;;;;4942033;28;20192;-65
2021/10/21 12:34:03;;;;;;;10.85;2.13;;;;;;;;;;4944090;28;20098;-65
2021/10/21 12:36:31;;;;;;;10.45;2.15;;;;;;;;;;4943795;28;20151;-65
2021/10/21 12:39:04;;;;;;;9.30;2.10;;;;;;;;;;4938183;29;20035;-64
2021/10/21 12:41:46;;;;;;;11.55;2.10;;;;;;;;;;4942930;28;20414;-65
2021/10/21 12:44:11;;;;;;;7.85;2.20;;;;;;;;;;4947596;28;20847;-65
2021/10/21 12:46:36;;;;;;;11.73;2.88;;;;;;;;;;4947209;28;20082;-65
2021/10/21 12:49:14;;;;;;;9.65;2.33;;;;;;;;;;4948136;28;20115;-65
2021/10/21 12:51:41;;;;;;;14.90;3.00;;;;;;;;;;4942341;28;20127;-65
2021/10/21 12:54:07;;;;;;;9.73;2.30;;;;;;;;;;4943108;28;20478;-64
2021/10/21 12:56:34;;;;;;;10.63;2.17;;;;;;;;;;4935691;28;20031;-65
2021/10/21 12:59:03;;;;;;;10.90;2.08;;;;;;;;;;4945817;28;20556;-64
2021/10/21 13:01:48;;;;;;;8.55;2.17;;;;;;;;;;4936503;28;20513;-65
2021/10/21 13:04:33;;;;;;;9.63;2.10;;;;;;;;;;4945630;28;20027;-65
2021/10/21 13:06:59;;;;;;;10.00;2.10;;;;;;;;;;4955110;28;20055;-65
2021/10/21 13:09:24;;;;;;;9.05;2.20;;;;;;;;;;4942665;28;20029;-64
2021/10/21 13:11:49;;;;;;;13.45;2.83;;;;;;;;;;4941476;28;20130;-64
2021/10/21 13:14:14;;;;;;;11.57;3.15;;;;;;;;;;4946695;28;20047;-64
2021/10/21 13:16:41;;;;;;;10.60;2.03;;;;;;;;;;4945019;28;20067;-65
2021/10/21 13:19:08;;;;;;;9.98;2.40;;;;;;;;;;4931226;28;20059;-64
2021/10/21 13:21:33;;;;;;;10.90;2.22;;;;;;;;;;4941955;28;20051;-65
2021/10/21 13:23:58;;;;;;;10.57;2.10;;;;;;;;;;4947902;28;20422;-65
2021/10/21 13:26:23;;;;;;;8.30;1.92;;;;;;;;;;4947801;28;20039;-64
2021/10/21 13:28:49;;;;;;;12.35;2.22;;;;;;;;;;4943704;28;20015;-65
2021/10/21 13:31:14;;;;;;;10.02;2.33;;;;;;;;;;4945817;28;20373;-65
2021/10/21 13:33:40;;;;;;;12.15;2.33;;;;;;;;;;4940356;28;20199;-65
2021/10/21 13:36:05;;;;;;;13.30;2.40;;;;;;;;;;4947548;28;20043;-64
2021/10/21 13:38:30;;;;;;;10.27;2.30;;;;;;;;;;4945933;28;20489;-64
2021/10/21 13:40:56;;;;;;;11.05;2.42;;;;;;;;;;4946115;28;20398;-64
2021/10/21 13:43:21;;;;;;;11.50;2.42;;;;;;;;;;4939676;28;20505;-65
2021/10/21 13:45:47;;;;;;;9.20;2.10;;;;;;;;;;4939301;28;20043;-66
2021/10/21 13:48:12;;;;;;;10.68;2.78;;;;;;;;;;4943206;28;20045;-68
2021/10/21 13:50:37;;;;;;;15.25;2.80;;;;;;;;;;4946811;28;20035;-66
2021/10/21 13:53:04;;;;;;;8.07;2.00;;;;;;;;;;4946870;28;20067;-66
2021/10/21 13:55:30;;;;;;;11.32;2.25;;;;;;;;;;4943182;28;20749;-66
2021/10/21 13:57:55;;;;;;;11.55;2.50;;;;;;;;;;4943815;28;20150;-66
2021/10/21 14:00:20;;;;;;;11.00;2.17;;;;;;;;;;4940405;28;20467;-66
2021/10/21 14:02:45;;;;;;;9.40;1.95;;;;;;;;;;4942253;28;20043;-66
2021/10/21 14:05:11;;;;;;;8.85;2.10;;;;;;;;;;4947154;28;20465;-65
2021/10/21 14:07:36;;;;;;;11.23;2.38;;;;;;;;;;4947520;28;20030;-65
2021/10/21 14:10:02;;;;;;;12.77;2.38;;;;;;;;;;4947267;28;20607;-65
2021/10/21 14:12:29;;;;;;;9.57;2.20;;;;;;;;;;4947138;28;20027;-65
2021/10/21 14:14:55;;;;;;;7.78;2.13;;;;;;;;;;4947181;28;20055;-65
2021/10/21 14:17:20;;;;;;;10.93;1.92;;;;;;;;;;4938184;28;20418;-65
2021/10/21 14:19:46;;;;;;;9.75;2.00;;;;;;;;;;4936292;28;20019;-65
2021/10/21 14:22:12;;;;;;;9.15;2.08;;;;;;;;;;4940760;28;20154;-67
2021/10/21 14:24:37;;;;;;;10.95;2.28;;;;;;;;;;4945285;29;20480;-65
2021/10/21 14:27:03;;;;;;;9.02;2.10;;;;;;;;;;4946711;28;20043;-65
2021/10/21 14:29:28;;;;;;;9.43;2.58;;;;;;;;;;4940302;29;20493;-65
2021/10/21 14:31:53;;;;;;;8.05;1.85;;;;;;;;;;4939985;28;20095;-65
2021/10/21 14:34:18;;;;;;;9.10;2.17;;;;;;;;;;4941487;28;20530;-65
2021/10/21 14:36:43;;;;;;;6.65;1.65;;;;;;;;;;4940734;28;20039;-65